createdAt,value
2017-09-02T00:00:34.155Z,11.00
2017-09-02T00:03:01.602Z,10.80
2017-09-02T00:05:29.150Z,10.90
2017-09-02T00:07:56.606Z,11.00
2017-09-02T00:10:24.061Z,11.10
2017-09-02T00:12:51.512Z,11.10
2017-09-02T00:15:18.968Z,11.10
2017-09-02T00:17:46.429Z,11.00
2017-09-02T00:20:13.891Z,11.00
2017-09-02T00:22:41.454Z,10.90
2017-09-02T00:25:08.910Z,10.80
2017-09-02T00:27:36.374Z,10.90
2017-09-02T00:30:03.820Z,10.80
2017-09-02T00:32:31.287Z,10.80
2017-09-02T00:34:58.742Z,10.90
2017-09-02T00:37:26.214Z,10.80
2017-09-02T00:39:53.672Z,10.90
2017-09-02T00:42:21.130Z,10.80
2017-09-02T00:44:48.657Z,10.90
2017-09-02T00:47:16.117Z,10.90
2017-09-02T00:49:43.566Z,10.70
2017-09-02T00:52:11.023Z,10.80
2017-09-02T00:54:38.470Z,10.80
2017-09-02T00:57:05.943Z,10.70
2017-09-02T00:59:33.385Z,10.70
2017-09-02T01:02:00.962Z,10.60
2017-09-02T01:04:28.520Z,10.60
2017-09-02T01:06:55.970Z,10.60
2017-09-02T01:09:23.434Z,10.70
2017-09-02T01:11:50.985Z,10.70
2017-09-02T01:14:18.557Z,10.80
2017-09-02T01:16:46.106Z,10.80
2017-09-02T01:19:13.561Z,10.80
2017-09-02T01:21:41.018Z,10.90
2017-09-02T01:24:08.478Z,10.70
2017-09-02T01:26:35.929Z,10.70
2017-09-02T01:29:03.389Z,10.70
2017-09-02T01:31:30.842Z,10.60
2017-09-02T01:33:58.410Z,10.60
2017-09-02T01:36:25.896Z,10.50
2017-09-02T01:38:53.329Z,10.50
2017-09-02T01:41:20.786Z,10.60
2017-09-02T01:43:48.333Z,10.40
2017-09-02T01:46:15.785Z,10.50
2017-09-02T01:48:43.245Z,10.40
2017-09-02T01:51:10.701Z,10.40
2017-09-02T01:53:38.167Z,10.50
2017-09-02T01:56:05.625Z,10.50
2017-09-02T01:58:33.091Z,10.50
2017-09-02T02:01:00.629Z,10.30
2017-09-02T02:03:28.091Z,10.30
2017-09-02T02:05:55.555Z,10.40
2017-09-02T02:08:23.006Z,10.50
2017-09-02T02:10:50.461Z,10.50
2017-09-02T02:13:18.035Z,10.60
2017-09-02T02:15:45.493Z,10.50
2017-09-02T02:18:13.030Z,10.60
2017-09-02T02:20:40.490Z,10.60
2017-09-02T02:23:07.934Z,10.60
2017-09-02T02:25:35.416Z,10.80
2017-09-02T02:28:02.857Z,10.70
2017-09-02T02:30:30.326Z,10.50
2017-09-02T02:32:57.777Z,10.40
2017-09-02T02:35:25.229Z,10.50
2017-09-02T02:37:52.680Z,10.40
2017-09-02T02:40:20.152Z,10.40
2017-09-02T02:42:47.593Z,10.40
2017-09-02T02:45:15.062Z,10.30
2017-09-02T02:47:42.614Z,10.40
2017-09-02T02:50:10.075Z,10.40
2017-09-02T02:52:37.633Z,10.30
2017-09-02T02:55:05.191Z,10.30
2017-09-02T02:57:32.633Z,10.40
2017-09-02T03:00:00.206Z,10.40
2017-09-02T03:02:27.675Z,10.40
2017-09-02T03:04:55.130Z,10.30
2017-09-02T03:07:22.585Z,10.30
2017-09-02T03:09:50.041Z,10.30
2017-09-02T03:12:17.507Z,10.30
2017-09-02T03:14:44.957Z,10.30
2017-09-02T03:17:12.517Z,10.30
2017-09-02T03:19:39.975Z,10.30
2017-09-02T03:22:07.535Z,10.30
2017-09-02T03:24:34.986Z,10.20
2017-09-02T03:27:02.534Z,10.20
2017-09-02T03:29:29.985Z,10.20
2017-09-02T03:31:57.547Z,10.20
2017-09-02T03:34:25.009Z,10.30
2017-09-02T03:36:52.690Z,10.20
2017-09-02T03:39:20.134Z,10.10
2017-09-02T03:41:47.602Z,10.00
2017-09-02T03:44:15.048Z,10.00
2017-09-02T03:46:42.509Z,10.00
2017-09-02T03:49:09.957Z,10.10
2017-09-02T03:51:37.509Z,10.20
2017-09-02T03:54:04.973Z,10.10
2017-09-02T03:56:32.437Z,10.20
2017-09-02T03:58:59.883Z,10.00
2017-09-02T04:01:27.359Z,9.90
2017-09-02T04:03:54.903Z,10.10
2017-09-02T04:06:22.354Z,10.20
2017-09-02T04:08:49.810Z,10.20
2017-09-02T04:11:17.270Z,10.10
2017-09-02T04:13:44.734Z,10.10
2017-09-02T04:16:12.195Z,10.00
2017-09-02T04:18:39.732Z,10.00
2017-09-02T04:21:07.194Z,10.00
2017-09-02T04:23:34.658Z,10.10
2017-09-02T04:26:02.116Z,10.10
2017-09-02T04:28:29.578Z,10.20
2017-09-02T04:30:57.038Z,10.10
2017-09-02T04:33:24.580Z,10.20
2017-09-02T04:35:52.025Z,10.10
2017-09-02T04:38:19.491Z,10.10
2017-09-02T04:40:46.940Z,10.10
2017-09-02T04:43:14.514Z,10.10
2017-09-02T04:45:41.965Z,10.10
2017-09-02T04:48:09.420Z,10.10
2017-09-02T04:50:36.990Z,10.10
2017-09-02T04:53:04.445Z,10.00
2017-09-02T04:55:32.011Z,10.00
2017-09-02T04:57:59.480Z,9.90
2017-09-02T05:00:26.930Z,9.90
2017-09-02T05:02:54.384Z,10.00
2017-09-02T05:05:21.835Z,10.10
2017-09-02T05:07:49.289Z,10.00
2017-09-02T05:10:16.752Z,10.20
2017-09-02T05:12:44.301Z,10.20
2017-09-02T05:15:11.757Z,10.20
2017-09-02T05:17:39.318Z,10.20
2017-09-02T05:20:06.883Z,10.10
2017-09-02T05:22:34.434Z,10.10
2017-09-02T05:25:01.989Z,10.20
2017-09-02T05:27:30.206Z,10.30
2017-09-02T05:29:57.665Z,10.30
2017-09-02T05:32:25.183Z,10.30
2017-09-02T05:34:52.633Z,10.50
2017-09-02T05:37:20.182Z,10.30
2017-09-02T05:39:47.633Z,10.30
2017-09-02T05:42:15.082Z,10.30
2017-09-02T05:44:42.543Z,10.30
2017-09-02T05:47:09.980Z,10.30
2017-09-02T05:49:37.453Z,10.40
2017-09-02T05:52:04.891Z,10.40
2017-09-02T05:54:33.210Z,10.40
2017-09-02T05:57:00.666Z,10.30
2017-09-02T05:59:28.125Z,10.50
2017-09-02T06:01:55.561Z,10.60
2017-09-02T06:04:23.018Z,10.50
2017-09-02T06:06:50.475Z,10.60
2017-09-02T06:09:17.929Z,10.70
2017-09-02T06:11:45.402Z,10.70
2017-09-02T06:14:12.851Z,10.70
2017-09-02T06:16:40.322Z,10.80
2017-09-02T06:19:07.766Z,10.90
2017-09-02T06:21:35.242Z,11.00
2017-09-02T06:24:02.695Z,11.00
2017-09-02T06:26:30.141Z,11.10
2017-09-02T06:28:57.598Z,11.20
2017-09-02T06:31:25.055Z,11.00
2017-09-02T06:33:52.507Z,11.10
2017-09-02T06:36:19.962Z,11.10
2017-09-02T06:38:47.411Z,11.10
2017-09-02T06:41:14.878Z,11.10
2017-09-02T06:43:42.318Z,11.00
2017-09-02T06:46:09.778Z,11.00
2017-09-02T06:48:37.230Z,11.20
2017-09-02T06:51:04.686Z,11.20
2017-09-02T06:53:32.134Z,11.30
2017-09-02T06:55:59.595Z,11.50
2017-09-02T06:58:27.967Z,11.50
2017-09-02T07:00:55.422Z,11.40
2017-09-02T07:03:22.878Z,11.30
2017-09-02T07:05:50.348Z,11.30
2017-09-02T07:08:17.793Z,11.60
2017-09-02T07:10:45.253Z,11.60
2017-09-02T07:13:12.742Z,11.70
2017-09-02T07:15:40.185Z,11.60
2017-09-02T07:18:07.650Z,11.70
2017-09-02T07:20:35.098Z,11.70
2017-09-02T07:23:02.553Z,11.90
2017-09-02T07:25:30.001Z,12.00
2017-09-02T07:27:57.467Z,12.10
2017-09-02T07:30:24.912Z,12.20
2017-09-02T07:32:52.364Z,12.30
2017-09-02T07:35:19.849Z,12.50
2017-09-02T07:37:47.307Z,12.70
2017-09-02T07:40:14.753Z,12.70
2017-09-02T07:42:42.218Z,12.90
2017-09-02T07:45:09.669Z,13.00
2017-09-02T07:47:37.120Z,13.10
2017-09-02T07:50:04.565Z,13.00
2017-09-02T07:52:32.022Z,13.10
2017-09-02T07:54:59.462Z,13.20
2017-09-02T07:57:26.909Z,13.20
2017-09-02T07:59:54.421Z,13.00
2017-09-02T08:02:21.881Z,12.90
2017-09-02T08:04:49.326Z,12.90
2017-09-02T08:07:16.777Z,13.00
2017-09-02T08:09:44.234Z,13.20
2017-09-02T08:12:11.696Z,13.30
2017-09-02T08:14:39.148Z,13.30
2017-09-02T08:17:06.599Z,13.50
2017-09-02T08:19:34.057Z,13.50
2017-09-02T08:22:01.520Z,13.40
2017-09-02T08:24:28.977Z,13.40
2017-09-02T08:26:56.425Z,13.50
2017-09-02T08:29:23.881Z,13.70
2017-09-02T08:31:51.339Z,13.90
2017-09-02T08:34:18.810Z,14.00
2017-09-02T08:36:46.254Z,14.00
2017-09-02T08:39:13.718Z,13.80
2017-09-02T08:41:41.154Z,13.80
2017-09-02T08:44:08.633Z,13.80
2017-09-02T08:46:36.077Z,13.90
2017-09-02T08:49:03.539Z,14.10
2017-09-02T08:51:30.986Z,13.90
2017-09-02T08:53:58.436Z,14.00
2017-09-02T08:56:25.887Z,14.00
2017-09-02T08:58:54.105Z,14.10
2017-09-02T09:01:21.544Z,14.10
2017-09-02T09:03:49.104Z,14.20
2017-09-02T09:06:16.558Z,14.30
2017-09-02T09:08:44.009Z,14.30
2017-09-02T09:11:11.465Z,14.20
2017-09-02T09:13:38.904Z,14.30
2017-09-02T09:16:06.352Z,14.30
2017-09-02T09:18:33.798Z,14.20
2017-09-02T09:21:01.249Z,14.40
2017-09-02T09:23:28.696Z,14.50
2017-09-02T09:25:56.939Z,14.80
2017-09-02T09:28:24.381Z,14.70
2017-09-02T09:30:51.824Z,15.10
2017-09-02T09:33:19.275Z,15.40
2017-09-02T09:35:46.718Z,15.20
2017-09-02T09:38:14.160Z,15.50
2017-09-02T09:40:41.672Z,15.70
2017-09-02T09:43:09.107Z,15.80
2017-09-02T09:45:36.552Z,15.80
2017-09-02T09:48:03.988Z,16.00
2017-09-02T09:50:31.442Z,16.00
2017-09-02T09:52:58.963Z,16.20
2017-09-02T09:55:26.423Z,16.20
2017-09-02T09:57:53.863Z,16.10
2017-09-02T10:00:21.331Z,15.90
2017-09-02T10:02:48.777Z,16.00
2017-09-02T10:05:16.225Z,16.00
2017-09-02T10:07:43.665Z,16.30
2017-09-02T10:10:11.123Z,16.50
2017-09-02T10:12:38.601Z,16.00
2017-09-02T10:15:06.070Z,16.20
2017-09-02T10:17:33.639Z,16.60
2017-09-02T10:20:01.072Z,16.80
2017-09-02T10:22:28.526Z,17.00
2017-09-02T10:24:55.969Z,17.00
2017-09-02T10:27:23.422Z,16.90
2017-09-02T10:29:50.865Z,17.00
2017-09-02T10:32:18.314Z,16.80
2017-09-02T10:34:45.824Z,16.60
2017-09-02T10:37:13.381Z,16.60
2017-09-02T10:39:40.825Z,16.60
2017-09-02T10:42:08.282Z,16.70
2017-09-02T10:44:35.717Z,16.80
2017-09-02T10:47:03.174Z,16.80
2017-09-02T10:49:30.670Z,17.00
2017-09-02T10:51:58.222Z,17.20
2017-09-02T10:54:25.662Z,17.10
2017-09-02T10:56:53.113Z,17.20
2017-09-02T10:59:20.557Z,17.60
2017-09-02T11:01:48.013Z,17.90
2017-09-02T11:04:15.444Z,18.00
2017-09-02T11:06:42.885Z,18.10
2017-09-02T11:09:10.329Z,17.60
2017-09-02T11:11:37.801Z,17.90
2017-09-02T11:14:05.243Z,18.40
2017-09-02T11:16:32.682Z,18.50
2017-09-02T11:19:00.130Z,18.20
2017-09-02T11:21:27.583Z,18.30
2017-09-02T11:23:55.029Z,17.70
2017-09-02T11:26:22.466Z,17.60
2017-09-02T11:28:49.912Z,17.80
2017-09-02T11:31:17.363Z,17.20
2017-09-02T11:33:44.807Z,17.40
2017-09-02T11:36:12.772Z,17.30
2017-09-02T11:38:40.207Z,17.50
2017-09-02T11:41:07.666Z,17.40
2017-09-02T11:43:35.113Z,17.40
2017-09-02T11:46:02.563Z,17.90
2017-09-02T11:48:30.015Z,18.30
2017-09-02T11:50:57.495Z,18.80
2017-09-02T11:53:24.937Z,19.20
2017-09-02T11:55:52.376Z,19.10
2017-09-02T11:58:19.858Z,19.60
2017-09-02T12:00:47.310Z,19.90
2017-09-02T12:03:14.767Z,20.00
2017-09-02T12:05:42.207Z,20.30
2017-09-02T12:08:09.654Z,20.20
2017-09-02T12:10:37.137Z,19.90
2017-09-02T12:13:04.605Z,20.50
2017-09-02T12:15:32.049Z,20.50
2017-09-02T12:17:59.494Z,20.40
2017-09-02T12:20:26.950Z,19.90
2017-09-02T12:22:54.390Z,20.20
2017-09-02T12:25:21.879Z,20.00
2017-09-02T12:27:49.330Z,19.50
2017-09-02T12:30:16.790Z,18.70
2017-09-02T12:32:44.235Z,18.50
2017-09-02T12:35:11.682Z,18.10
2017-09-02T12:37:39.122Z,18.10
2017-09-02T12:40:06.570Z,18.20
2017-09-02T12:42:34.009Z,18.20
2017-09-02T12:45:01.464Z,18.50
2017-09-02T12:47:28.905Z,18.90
2017-09-02T12:49:56.354Z,19.40
2017-09-02T12:52:23.793Z,19.60
2017-09-02T12:54:51.245Z,19.30
2017-09-02T12:57:18.690Z,19.50
2017-09-02T12:59:46.143Z,19.40
2017-09-02T13:02:13.597Z,19.20
2017-09-02T13:04:41.037Z,19.30
2017-09-02T13:07:08.478Z,19.70
2017-09-02T13:09:35.934Z,20.50
2017-09-02T13:12:03.370Z,20.90
2017-09-02T13:14:30.837Z,20.90
2017-09-02T13:16:58.274Z,20.70
2017-09-02T13:19:25.721Z,21.00
2017-09-02T13:21:53.179Z,21.00
2017-09-02T13:24:20.617Z,21.30
2017-09-02T13:26:48.066Z,21.40
2017-09-02T13:29:15.506Z,21.40
2017-09-02T13:31:42.957Z,21.50
2017-09-02T13:34:10.405Z,20.80
2017-09-02T13:36:37.857Z,21.60
2017-09-02T13:39:06.066Z,21.00
2017-09-02T13:41:33.518Z,21.00
2017-09-02T13:44:00.961Z,20.70
2017-09-02T13:46:28.410Z,19.90
2017-09-02T13:48:55.847Z,20.00
2017-09-02T13:51:23.293Z,20.20
2017-09-02T13:53:50.737Z,20.10
2017-09-02T13:56:18.198Z,19.70
2017-09-02T13:58:45.637Z,19.80
2017-09-02T14:01:13.085Z,19.70
2017-09-02T14:03:40.539Z,19.70
2017-09-02T14:06:07.990Z,19.50
2017-09-02T14:08:35.421Z,18.50
2017-09-02T14:11:02.870Z,18.80
2017-09-02T14:13:30.314Z,18.50
2017-09-02T14:15:57.778Z,18.70
2017-09-02T14:18:25.986Z,18.60
2017-09-02T14:20:53.426Z,18.60
2017-09-02T14:23:20.882Z,18.80
2017-09-02T14:25:48.322Z,18.90
2017-09-02T14:28:15.844Z,19.10
2017-09-02T14:30:43.286Z,19.30
2017-09-02T14:33:10.757Z,19.40
2017-09-02T14:35:38.181Z,19.30
2017-09-02T14:38:05.633Z,20.20
2017-09-02T14:40:33.089Z,21.00
2017-09-02T14:43:00.518Z,21.00
2017-09-02T14:45:28.019Z,20.50
2017-09-02T14:47:55.466Z,20.10
2017-09-02T14:50:22.911Z,19.70
2017-09-02T14:52:50.356Z,19.70
2017-09-02T14:55:17.798Z,19.30
2017-09-02T14:57:45.254Z,19.00
2017-09-02T15:00:12.693Z,18.80
2017-09-02T15:02:40.909Z,18.30
2017-09-02T15:05:08.361Z,18.30
2017-09-02T15:07:36.722Z,18.50
2017-09-02T15:10:04.162Z,18.60
2017-09-02T15:12:31.618Z,18.60
2017-09-02T15:14:59.062Z,18.60
2017-09-02T15:17:26.504Z,18.60
2017-09-02T15:19:54.020Z,18.50
2017-09-02T15:22:21.455Z,18.50
2017-09-02T15:24:48.897Z,18.60
2017-09-02T15:27:16.361Z,19.20
2017-09-02T15:29:43.793Z,20.30
2017-09-02T15:32:11.238Z,20.80
2017-09-02T15:34:38.685Z,20.90
2017-09-02T15:37:06.122Z,21.00
2017-09-02T15:39:33.567Z,20.00
2017-09-02T15:42:01.007Z,19.90
2017-09-02T15:44:28.449Z,19.90
2017-09-02T15:46:55.886Z,20.00
2017-09-02T15:49:23.337Z,20.10
2017-09-02T15:51:50.781Z,19.60
2017-09-02T15:54:18.243Z,19.60
2017-09-02T15:56:45.682Z,19.60
2017-09-02T15:59:13.134Z,19.70
2017-09-02T16:01:40.575Z,19.50
2017-09-02T16:04:08.020Z,19.60
2017-09-02T16:06:35.456Z,19.40
2017-09-02T16:09:02.906Z,19.30
2017-09-02T16:11:31.114Z,19.80
2017-09-02T16:13:58.572Z,19.70
2017-09-02T16:16:26.001Z,19.60
2017-09-02T16:18:53.466Z,19.50
2017-09-02T16:21:20.900Z,19.70
2017-09-02T16:23:48.355Z,19.40
2017-09-02T16:26:15.794Z,19.20
2017-09-02T16:28:43.236Z,18.10
2017-09-02T16:31:10.676Z,18.10
2017-09-02T16:33:38.122Z,18.70
2017-09-02T16:36:05.565Z,17.80
2017-09-02T16:38:33.010Z,17.20
2017-09-02T16:41:00.453Z,17.30
2017-09-02T16:43:27.890Z,17.30
2017-09-02T16:45:55.341Z,17.30
2017-09-02T16:48:22.790Z,17.20
2017-09-02T16:50:50.249Z,16.80
2017-09-02T16:53:17.686Z,16.60
2017-09-02T16:55:45.139Z,16.60
2017-09-02T16:58:12.577Z,16.60
2017-09-02T17:00:40.025Z,16.40
2017-09-02T17:03:07.466Z,16.30
2017-09-02T17:05:34.923Z,16.20
2017-09-02T17:08:02.361Z,16.10
2017-09-02T17:10:29.813Z,15.80
2017-09-02T17:12:57.254Z,15.80
2017-09-02T17:15:24.711Z,15.70
2017-09-02T17:17:52.155Z,15.70
2017-09-02T17:20:19.608Z,15.60
2017-09-02T17:22:47.049Z,15.60
2017-09-02T17:25:14.490Z,15.50
2017-09-02T17:27:41.938Z,15.40
2017-09-02T17:30:09.377Z,15.30
2017-09-02T17:32:36.829Z,15.30
2017-09-02T17:35:04.266Z,15.30
2017-09-02T17:37:31.714Z,15.30
2017-09-02T17:39:59.161Z,15.30
2017-09-02T17:42:26.627Z,15.30
2017-09-02T17:44:54.058Z,15.30
2017-09-02T17:47:22.268Z,15.20
2017-09-02T17:49:49.765Z,15.10
2017-09-02T17:52:17.982Z,15.10
2017-09-02T17:54:45.421Z,15.00
2017-09-02T17:57:12.883Z,15.00
2017-09-02T17:59:40.327Z,14.90
2017-09-02T18:02:07.770Z,15.00
2017-09-02T18:04:35.212Z,15.20
2017-09-02T18:07:03.429Z,15.20
2017-09-02T18:09:30.878Z,15.10
2017-09-02T18:11:58.321Z,15.00
2017-09-02T18:14:25.770Z,14.80
2017-09-02T18:16:53.240Z,14.80
2017-09-02T18:19:20.674Z,14.70
2017-09-02T18:21:48.136Z,14.50
2017-09-02T18:24:16.344Z,14.40
2017-09-02T18:26:43.791Z,14.40
2017-09-02T18:29:11.238Z,14.30
2017-09-02T18:31:38.682Z,14.30
2017-09-02T18:34:06.132Z,14.30
2017-09-02T18:36:34.344Z,14.10
2017-09-02T18:39:01.798Z,14.10
2017-09-02T18:41:29.248Z,14.10
2017-09-02T18:43:56.697Z,14.10
2017-09-02T18:46:24.134Z,14.10
2017-09-02T18:48:52.358Z,14.00
2017-09-02T18:51:19.808Z,14.00
2017-09-02T18:53:47.249Z,14.00
2017-09-02T18:56:14.694Z,14.00
2017-09-02T18:58:42.147Z,13.90
2017-09-02T19:01:09.597Z,13.90
2017-09-02T19:03:37.044Z,13.70
2017-09-02T19:06:04.484Z,13.70
2017-09-02T19:08:31.945Z,13.70
2017-09-02T19:10:59.395Z,13.60
2017-09-02T19:13:26.850Z,13.60
2017-09-02T19:15:54.290Z,13.60
2017-09-02T19:18:21.747Z,13.50
2017-09-02T19:20:49.202Z,13.40
2017-09-02T19:23:16.674Z,13.40
2017-09-02T19:25:44.119Z,13.40
2017-09-02T19:28:11.566Z,13.30
2017-09-02T19:30:39.022Z,13.20
2017-09-02T19:33:06.470Z,13.20
2017-09-02T19:35:33.929Z,13.00
2017-09-02T19:38:01.373Z,13.00
2017-09-02T19:40:28.835Z,12.90
2017-09-02T19:42:56.292Z,12.80
2017-09-02T19:45:23.746Z,12.80
2017-09-02T19:47:51.193Z,12.80
2017-09-02T19:50:18.657Z,12.80
2017-09-02T19:52:46.135Z,12.70
2017-09-02T19:55:13.585Z,12.80
2017-09-02T19:57:41.041Z,12.70
2017-09-02T20:00:08.484Z,12.70
2017-09-02T20:02:35.930Z,12.70
2017-09-02T20:05:03.383Z,12.60
2017-09-02T20:07:30.825Z,12.70
2017-09-02T20:09:58.299Z,12.70
2017-09-02T20:12:25.755Z,12.70
2017-09-02T20:14:53.202Z,12.70
2017-09-02T20:17:20.713Z,12.70
2017-09-02T20:19:48.223Z,12.60
2017-09-02T20:22:15.717Z,12.60
2017-09-02T20:24:43.290Z,12.50
2017-09-02T20:27:10.726Z,12.50
2017-09-02T20:29:38.196Z,12.40
2017-09-02T20:32:05.657Z,12.30
2017-09-02T20:34:33.229Z,12.30
2017-09-02T20:37:01.451Z,12.10
2017-09-02T20:39:29.686Z,12.00
2017-09-02T20:41:57.133Z,12.00
2017-09-02T20:44:25.350Z,11.90
2017-09-02T20:46:52.801Z,11.80
2017-09-02T20:49:20.251Z,11.90
2017-09-02T20:51:47.702Z,12.00
2017-09-02T20:54:15.141Z,12.10
2017-09-02T20:56:42.598Z,12.20
2017-09-02T20:59:10.041Z,12.20
2017-09-02T21:01:37.575Z,12.30
2017-09-02T21:04:05.022Z,12.30
2017-09-02T21:06:32.474Z,12.30
2017-09-02T21:08:59.922Z,12.40
2017-09-02T21:11:27.386Z,12.40
2017-09-02T21:13:54.830Z,12.40
2017-09-02T21:16:22.394Z,12.40
2017-09-02T21:18:49.853Z,12.40
2017-09-02T21:21:17.306Z,12.40
2017-09-02T21:23:44.754Z,12.30
2017-09-02T21:26:12.200Z,12.30
2017-09-02T21:28:39.645Z,12.30
2017-09-02T21:31:07.862Z,12.00
2017-09-02T21:33:35.487Z,12.00
2017-09-02T21:36:02.936Z,11.90
2017-09-02T21:38:30.395Z,11.90
2017-09-02T21:40:57.829Z,11.80
2017-09-02T21:43:25.283Z,11.70
2017-09-02T21:45:52.731Z,11.60
2017-09-02T21:48:20.180Z,11.60
2017-09-02T21:50:47.625Z,11.70
2017-09-02T21:53:15.078Z,11.80
2017-09-02T21:55:42.523Z,11.90
2017-09-02T21:58:09.974Z,12.00
2017-09-02T22:00:37.418Z,12.10
2017-09-02T22:03:04.880Z,12.00
2017-09-02T22:05:32.312Z,12.00
2017-09-02T22:07:59.773Z,12.00
2017-09-02T22:10:27.226Z,12.10
2017-09-02T22:12:54.672Z,12.00
2017-09-02T22:15:22.122Z,11.90
2017-09-02T22:17:49.568Z,11.90
2017-09-02T22:20:17.014Z,12.00
2017-09-02T22:22:44.467Z,12.00
2017-09-02T22:25:11.914Z,11.90
2017-09-02T22:27:39.366Z,11.80
2017-09-02T22:30:06.809Z,11.80
2017-09-02T22:32:34.255Z,11.70
2017-09-02T22:35:01.718Z,11.70
2017-09-02T22:37:29.163Z,11.70
2017-09-02T22:39:56.609Z,11.70
2017-09-02T22:42:24.048Z,11.60
2017-09-02T22:44:51.505Z,11.40
2017-09-02T22:47:19.719Z,11.20
2017-09-02T22:49:47.937Z,11.10
2017-09-02T22:52:15.378Z,11.10
2017-09-02T22:54:42.824Z,11.10
2017-09-02T22:57:10.281Z,11.20
2017-09-02T22:59:37.725Z,11.20
2017-09-02T23:02:05.973Z,11.20
2017-09-02T23:04:33.430Z,11.30
2017-09-02T23:07:00.878Z,11.20
2017-09-02T23:09:29.098Z,11.20
2017-09-02T23:11:56.546Z,11.10
2017-09-02T23:14:23.994Z,11.00
2017-09-02T23:16:51.433Z,11.00
2017-09-02T23:19:18.882Z,11.10
2017-09-02T23:21:46.325Z,11.00
2017-09-02T23:24:14.541Z,10.90
2017-09-02T23:26:42.002Z,10.90
2017-09-02T23:29:09.445Z,10.90
2017-09-02T23:31:36.889Z,10.90
2017-09-02T23:34:04.333Z,10.90
2017-09-02T23:36:31.791Z,10.90
2017-09-02T23:39:00.006Z,10.70
2017-09-02T23:41:27.790Z,10.60
2017-09-02T23:43:55.237Z,10.70
2017-09-02T23:46:22.695Z,10.70
2017-09-02T23:48:50.137Z,10.70
2017-09-02T23:51:17.589Z,10.90
2017-09-02T23:53:45.034Z,10.90
2017-09-02T23:56:12.482Z,11.00
2017-09-02T23:58:39.929Z,11.10
